createdAt,value
2022-11-18T00:00:00.364Z,0.045
2022-11-18T00:01:00.537Z,0.045
2022-11-18T00:02:00.393Z,0.045
2022-11-18T00:03:00.308Z,0.045
2022-11-18T00:04:00.493Z,0.045
2022-11-18T00:05:00.413Z,0.045
2022-11-18T00:06:00.394Z,0.045
2022-11-18T00:07:00.534Z,0.045
2022-11-18T00:08:00.493Z,0.045
2022-11-18T00:09:00.372Z,0.045
2022-11-18T00:10:00.437Z,0.045
2022-11-18T00:11:00.435Z,0.045
2022-11-18T00:12:00.563Z,0.045
2022-11-18T00:13:00.536Z,0.045
2022-11-18T00:14:00.431Z,0.045
2022-11-18T00:15:00.447Z,0.045
2022-11-18T00:16:00.596Z,0.045
2022-11-18T00:17:00.509Z,0.045
2022-11-18T00:18:00.448Z,0.045
2022-11-18T00:19:00.503Z,0.045
2022-11-18T00:20:00.382Z,0.045
2022-11-18T00:21:00.350Z,0.045
2022-11-18T00:22:00.349Z,0.045
2022-11-18T00:23:00.395Z,0.045
2022-11-18T00:24:00.416Z,0.045
2022-11-18T00:25:00.589Z,0.045
2022-11-18T00:26:00.398Z,0.045
2022-11-18T00:27:00.444Z,0.045
2022-11-18T00:28:00.364Z,0.045
2022-11-18T00:29:00.368Z,0.045
2022-11-18T00:30:00.328Z,0.045
2022-11-18T00:31:00.514Z,0.045
2022-11-18T00:32:00.389Z,0.045
2022-11-18T00:33:00.305Z,0.045
2022-11-18T00:34:00.336Z,0.045
2022-11-18T00:35:00.477Z,0.045
2022-11-18T00:36:00.705Z,0.045
2022-11-18T00:37:01.015Z,0.045
2022-11-18T00:38:00.775Z,0.045
2022-11-18T00:39:00.773Z,0.045
2022-11-18T00:40:00.844Z,0.045
2022-11-18T00:41:00.728Z,0.045
2022-11-18T00:42:00.773Z,0.045
2022-11-18T00:43:01.250Z,0.045
2022-11-18T00:44:00.559Z,0.045
2022-11-18T00:45:00.362Z,0.045
2022-11-18T00:46:00.555Z,0.045
2022-11-18T00:47:00.357Z,0.045
2022-11-18T00:48:00.362Z,0.045
2022-11-18T00:49:00.542Z,0.045
2022-11-18T00:50:00.346Z,0.045
2022-11-18T00:51:00.514Z,0.045
2022-11-18T00:52:00.517Z,0.045
2022-11-18T00:53:00.334Z,0.045
2022-11-18T00:54:00.312Z,0.045
2022-11-18T00:55:00.520Z,0.045
2022-11-18T00:56:00.326Z,0.045
2022-11-18T00:57:00.398Z,0.045
2022-11-18T00:58:00.554Z,0.045
2022-11-18T00:59:00.471Z,0.045
2022-11-18T01:00:00.403Z,0.045
2022-11-18T01:01:00.677Z,0.045
2022-11-18T01:02:00.328Z,0.045
2022-11-18T01:03:00.375Z,0.045
2022-11-18T01:04:00.312Z,0.045
2022-11-18T01:05:00.352Z,0.045
2022-11-18T01:06:00.368Z,0.045
2022-11-18T01:07:00.774Z,0.045
2022-11-18T01:08:00.390Z,0.045
2022-11-18T01:09:00.477Z,0.045
2022-11-18T01:10:00.402Z,0.045
2022-11-18T01:11:00.451Z,0.045
2022-11-18T01:12:00.378Z,0.045
2022-11-18T01:13:00.590Z,0.045
2022-11-18T01:14:00.552Z,0.045
2022-11-18T01:15:00.400Z,0.045
2022-11-18T01:16:00.326Z,0.045
2022-11-18T01:17:00.300Z,0.045
2022-11-18T01:18:00.369Z,0.045
2022-11-18T01:19:00.476Z,0.045
2022-11-18T01:20:00.392Z,0.045
2022-11-18T01:21:00.400Z,0.045
2022-11-18T01:22:00.320Z,0.045
2022-11-18T01:23:00.355Z,0.045
2022-11-18T01:24:00.521Z,0.045
2022-11-18T01:25:00.529Z,0.045
2022-11-18T01:26:00.524Z,0.045
2022-11-18T01:27:00.393Z,0.045
2022-11-18T01:28:00.396Z,0.045
2022-11-18T01:29:00.420Z,0.045
2022-11-18T01:30:00.310Z,0.045
2022-11-18T01:31:00.504Z,0.045
2022-11-18T01:32:24.418Z,0.045
2022-11-18T01:33:00.328Z,0.045
2022-11-18T01:34:00.363Z,0.045
2022-11-18T01:35:00.313Z,0.045
2022-11-18T01:36:00.354Z,0.045
2022-11-18T01:37:00.464Z,0.045
2022-11-18T01:38:00.310Z,0.045
2022-11-18T01:39:00.339Z,0.045
2022-11-18T01:40:00.307Z,0.045
2022-11-18T01:41:00.471Z,0.045
2022-11-18T01:42:00.324Z,0.045
2022-11-18T01:43:00.455Z,0.045
2022-11-18T01:44:00.292Z,0.045
2022-11-18T01:45:00.320Z,0.045
2022-11-18T01:46:00.316Z,0.045
2022-11-18T01:47:00.338Z,0.045
2022-11-18T01:48:00.386Z,0.045
2022-11-18T01:49:00.525Z,0.045
2022-11-18T01:50:00.371Z,0.045
2022-11-18T01:51:00.335Z,0.045
2022-11-18T01:52:00.307Z,0.045
2022-11-18T01:53:00.313Z,0.045
2022-11-18T01:54:00.294Z,0.045
2022-11-18T01:55:00.492Z,0.045
2022-11-18T01:56:00.365Z,0.045
2022-11-18T01:57:00.390Z,0.045
2022-11-18T01:58:00.310Z,0.045
2022-11-18T01:59:00.319Z,0.045
2022-11-18T02:00:00.319Z,0.045
2022-11-18T02:01:00.531Z,0.045
2022-11-18T02:02:00.476Z,0.045
2022-11-18T02:03:00.345Z,0.045
2022-11-18T02:04:00.315Z,0.045
2022-11-18T02:05:00.386Z,0.045
2022-11-18T02:06:00.354Z,0.045
2022-11-18T02:07:00.539Z,0.045
2022-11-18T02:08:00.318Z,0.045
2022-11-18T02:09:00.318Z,0.045
2022-11-18T02:10:00.297Z,0.045
2022-11-18T02:11:00.374Z,0.045
2022-11-18T02:12:00.398Z,0.045
2022-11-18T02:13:00.524Z,0.045
2022-11-18T02:14:00.294Z,0.045
2022-11-18T02:15:00.319Z,0.045
2022-11-18T02:16:00.317Z,0.045
2022-11-18T02:17:00.314Z,0.045
2022-11-18T02:18:00.413Z,0.045
2022-11-18T02:19:00.482Z,0.045
2022-11-18T02:20:00.385Z,0.045
2022-11-18T02:21:00.331Z,0.045
2022-11-18T02:22:00.395Z,0.045
2022-11-18T02:23:00.337Z,0.045
2022-11-18T02:24:00.322Z,0.045
2022-11-18T02:25:00.560Z,0.045
2022-11-18T02:26:00.323Z,0.045
2022-11-18T02:27:00.322Z,0.045
2022-11-18T02:28:00.414Z,0.045
2022-11-18T02:29:00.319Z,0.045
2022-11-18T02:30:00.303Z,0.045
2022-11-18T02:31:00.453Z,0.045
2022-11-18T02:32:00.313Z,0.045
2022-11-18T02:33:00.346Z,0.045
2022-11-18T02:34:00.316Z,0.045
2022-11-18T02:35:00.420Z,0.045
2022-11-18T02:36:00.301Z,0.045
2022-11-18T02:37:00.521Z,0.045
2022-11-18T02:38:00.324Z,0.045
2022-11-18T02:39:00.319Z,0.045
2022-11-18T02:40:00.320Z,0.045
2022-11-18T02:41:00.315Z,0.045
2022-11-18T02:42:00.323Z,0.045
2022-11-18T02:43:00.472Z,0.045
2022-11-18T02:44:00.290Z,0.045
2022-11-18T02:45:00.332Z,0.045
2022-11-18T02:46:00.308Z,0.045
2022-11-18T02:47:00.309Z,0.045
2022-11-18T02:48:00.332Z,0.045
2022-11-18T02:49:00.538Z,0.045
2022-11-18T02:50:00.330Z,0.045
2022-11-18T02:51:00.295Z,0.045
2022-11-18T02:52:00.378Z,0.045
2022-11-18T02:53:00.404Z,0.045
2022-11-18T02:54:00.353Z,0.045
2022-11-18T02:55:00.620Z,0.045
2022-11-18T02:56:00.388Z,0.045
2022-11-18T02:57:00.376Z,0.045
2022-11-18T02:58:00.507Z,0.045
2022-11-18T02:59:00.318Z,0.045
2022-11-18T03:00:00.314Z,0.045
2022-11-18T03:01:00.829Z,0.045
2022-11-18T03:02:00.412Z,0.045
2022-11-18T03:03:00.307Z,0.045
2022-11-18T03:04:00.338Z,0.090
2022-11-18T03:05:00.328Z,0.045
2022-11-18T03:06:00.300Z,0.090
2022-11-18T03:07:00.497Z,0.090
2022-11-18T03:08:00.321Z,0.090
2022-11-18T03:09:00.309Z,0.090
2022-11-18T03:10:00.323Z,0.135
2022-11-18T03:11:00.409Z,0.135
2022-11-18T03:12:00.394Z,0.135
2022-11-18T03:13:00.559Z,0.180
2022-11-18T03:14:00.389Z,0.180
2022-11-18T03:15:00.371Z,0.180
2022-11-18T03:16:00.315Z,0.180
2022-11-18T03:17:00.310Z,0.270
2022-11-18T03:18:00.324Z,0.270
2022-11-18T03:19:00.477Z,0.360
2022-11-18T03:20:00.355Z,0.405
2022-11-18T03:21:00.336Z,0.495
2022-11-18T03:22:00.309Z,0.585
2022-11-18T03:23:00.339Z,0.720
2022-11-18T03:24:00.323Z,0.900
2022-11-18T03:25:00.547Z,1.170
2022-11-18T03:26:00.303Z,1.350
2022-11-18T03:27:00.355Z,1.710
2022-11-18T03:28:00.544Z,2.160
2022-11-18T03:29:00.569Z,2.655
2022-11-18T03:30:00.305Z,3.330
2022-11-18T03:31:00.442Z,4.095
2022-11-18T03:32:00.327Z,5.130
2022-11-18T03:33:00.331Z,6.255
2022-11-18T03:34:00.315Z,7.515
2022-11-18T03:35:00.325Z,9.135
2022-11-18T03:36:00.307Z,10.980
2022-11-18T03:37:00.815Z,13.140
2022-11-18T03:38:00.327Z,15.660
2022-11-18T03:39:00.303Z,18.450
2022-11-18T03:40:00.371Z,21.510
2022-11-18T03:41:00.318Z,25.020
2022-11-18T03:42:00.292Z,28.980
2022-11-18T03:43:00.471Z,33.300
2022-11-18T03:44:00.435Z,38.160
2022-11-18T03:45:00.381Z,43.200
2022-11-18T03:46:00.303Z,48.600
2022-11-18T03:47:00.320Z,54.360
2022-11-18T03:48:00.350Z,60.480
2022-11-18T03:49:00.437Z,66.960
2022-11-18T03:50:00.295Z,74.160
2022-11-18T03:51:00.305Z,82.080
2022-11-18T03:52:00.328Z,90.000
2022-11-18T03:53:00.327Z,98.640
2022-11-18T03:54:00.327Z,107.280
2022-11-18T03:55:00.559Z,115.920
2022-11-18T03:56:00.288Z,125.280
2022-11-18T03:57:00.293Z,134.640
2022-11-18T03:58:00.346Z,144.720
2022-11-18T03:59:00.318Z,154.800
2022-11-18T04:00:00.481Z,167.040
2022-11-18T04:01:00.500Z,177.840
2022-11-18T04:02:00.523Z,190.080
2022-11-18T04:03:00.372Z,203.040
2022-11-18T04:04:00.305Z,216.000
2022-11-18T04:05:00.296Z,228.960
2022-11-18T04:06:00.334Z,243.360
2022-11-18T04:07:00.539Z,262.080
2022-11-18T04:08:00.351Z,282.240
2022-11-18T04:09:00.294Z,302.400
2022-11-18T04:10:00.352Z,321.120
2022-11-18T04:11:00.347Z,380.160
2022-11-18T04:12:00.354Z,457.920
2022-11-18T04:13:05.802Z,480.960
2022-11-18T04:14:00.314Z,408.960
2022-11-18T04:15:00.506Z,406.080
2022-11-18T04:16:00.336Z,426.240
2022-11-18T04:17:00.406Z,446.400
2022-11-18T04:18:00.376Z,469.440
2022-11-18T04:19:05.932Z,489.600
2022-11-18T04:20:00.411Z,515.520
2022-11-18T04:21:00.334Z,538.560
2022-11-18T04:22:00.347Z,561.600
2022-11-18T04:23:00.428Z,584.640
2022-11-18T04:24:00.306Z,610.560
2022-11-18T04:25:00.573Z,645.120
2022-11-18T04:26:00.326Z,682.560
2022-11-18T04:27:00.291Z,725.760
2022-11-18T04:28:00.516Z,933.120
2022-11-18T04:29:00.317Z,1900.800
2022-11-18T04:30:00.482Z,2926.080
2022-11-18T04:31:00.407Z,3409.920
2022-11-18T04:32:00.312Z,3709.440
2022-11-18T04:33:00.323Z,3755.520
2022-11-18T04:34:00.329Z,3962.880
2022-11-18T04:35:00.297Z,4285.440
2022-11-18T04:36:00.354Z,4561.920
2022-11-18T04:37:00.453Z,4769.280
2022-11-18T04:38:00.302Z,4861.440
2022-11-18T04:39:00.325Z,4884.480
2022-11-18T04:40:00.332Z,4930.560
2022-11-18T04:41:00.314Z,4907.520
2022-11-18T04:42:00.287Z,3962.880
2022-11-18T04:43:00.472Z,2384.640
2022-11-18T04:44:00.326Z,1290.240
2022-11-18T04:45:00.776Z,1301.760
2022-11-18T04:46:00.415Z,1313.280
2022-11-18T04:47:00.334Z,1336.320
2022-11-18T04:48:03.469Z,1370.880
2022-11-18T04:49:00.572Z,1405.440
2022-11-18T04:50:00.347Z,1434.240
2022-11-18T04:51:00.400Z,1468.800
2022-11-18T04:52:00.331Z,1497.600
2022-11-18T04:53:00.302Z,1543.680
2022-11-18T04:54:00.307Z,1578.240
2022-11-18T04:55:00.465Z,1647.360
2022-11-18T04:56:00.359Z,3571.200
2022-11-18T04:57:00.348Z,6451.200
2022-11-18T04:58:00.389Z,8294.400
2022-11-18T04:59:00.329Z,8663.040
2022-11-18T05:00:00.344Z,8939.520
2022-11-18T05:01:00.555Z,9077.760
2022-11-18T05:02:00.459Z,9262.080
2022-11-18T05:03:00.289Z,9400.320
2022-11-18T05:04:00.290Z,9722.880
2022-11-18T05:05:00.411Z,9815.040
2022-11-18T05:06:00.406Z,9676.800
2022-11-18T05:07:00.527Z,9907.200
2022-11-18T05:08:00.298Z,10414.080
2022-11-18T05:09:00.399Z,10598.400
2022-11-18T05:10:00.328Z,10644.480
2022-11-18T05:11:00.336Z,10690.560
2022-11-18T05:12:00.301Z,10552.320
2022-11-18T05:13:00.463Z,9169.920
2022-11-18T05:14:00.321Z,10460.160
2022-11-18T05:15:00.360Z,10690.560
2022-11-18T05:16:00.315Z,10736.640
2022-11-18T05:17:00.430Z,10920.960
2022-11-18T05:18:00.328Z,11243.520
2022-11-18T05:19:00.497Z,11473.920
2022-11-18T05:20:00.360Z,11888.640
2022-11-18T05:21:00.331Z,12257.280
2022-11-18T05:22:00.289Z,12441.600
2022-11-18T05:23:00.295Z,12625.920
2022-11-18T05:24:00.327Z,12718.080
2022-11-18T05:25:00.458Z,12902.400
2022-11-18T05:26:02.599Z,12718.080
2022-11-18T05:27:00.325Z,12718.080
2022-11-18T05:28:00.314Z,12533.760
2022-11-18T05:29:00.335Z,12718.080
2022-11-18T05:30:00.334Z,13271.040
2022-11-18T05:31:00.502Z,13178.880
2022-11-18T05:32:00.459Z,13455.360
2022-11-18T05:33:00.511Z,13639.680
2022-11-18T05:34:00.324Z,13639.680
2022-11-18T05:35:00.337Z,13455.360
2022-11-18T05:36:00.397Z,13271.040
2022-11-18T05:37:00.462Z,12994.560
2022-11-18T05:38:00.383Z,13455.360
2022-11-18T05:39:00.415Z,13824.000
2022-11-18T05:40:00.344Z,14100.480
2022-11-18T05:41:00.328Z,13916.160
2022-11-18T05:42:00.314Z,14008.320
2022-11-18T05:43:00.474Z,14008.320
2022-11-18T05:44:00.330Z,14376.960
2022-11-18T05:45:00.342Z,14561.280
2022-11-18T05:46:00.332Z,14561.280
2022-11-18T05:47:00.395Z,14653.440
2022-11-18T05:48:00.482Z,14469.120
2022-11-18T05:49:00.567Z,14469.120
2022-11-18T05:50:00.330Z,14745.600
2022-11-18T05:51:00.313Z,15206.400
2022-11-18T05:52:00.306Z,15482.880
2022-11-18T05:53:00.328Z,15851.520
2022-11-18T05:54:00.364Z,15759.360
2022-11-18T05:55:00.486Z,15667.200
2022-11-18T05:56:00.368Z,16128.000
2022-11-18T05:57:00.303Z,16220.160
2022-11-18T05:58:00.350Z,15575.040
2022-11-18T05:59:00.317Z,15206.400
2022-11-18T06:00:00.429Z,15298.560
2022-11-18T06:01:00.551Z,16035.840
2022-11-18T06:02:00.330Z,16312.320
2022-11-18T06:03:00.393Z,16496.641
2022-11-18T06:04:00.508Z,16496.641
2022-11-18T06:05:00.341Z,16680.961
2022-11-18T06:06:00.299Z,16865.279
2022-11-18T06:07:00.429Z,16865.279
2022-11-18T06:08:00.288Z,16773.119
2022-11-18T06:09:00.379Z,16312.320
2022-11-18T06:10:05.014Z,14653.440
2022-11-18T06:11:00.414Z,8340.480
2022-11-18T06:12:00.326Z,3432.960
2022-11-18T06:13:00.468Z,3064.320
2022-11-18T06:14:00.325Z,3041.280
2022-11-18T06:15:00.309Z,3018.240
2022-11-18T06:16:00.325Z,2995.200
2022-11-18T06:17:00.307Z,2995.200
2022-11-18T06:18:00.302Z,2972.160
2022-11-18T06:19:00.610Z,2972.160
2022-11-18T06:20:00.547Z,2995.200
2022-11-18T06:21:00.359Z,3018.240
2022-11-18T06:22:00.337Z,3041.280
2022-11-18T06:23:00.330Z,3041.280
2022-11-18T06:24:00.312Z,3041.280
2022-11-18T06:25:00.458Z,3018.240
2022-11-18T06:26:00.546Z,3018.240
2022-11-18T06:27:00.327Z,3064.320
2022-11-18T06:28:00.329Z,3087.360
2022-11-18T06:29:00.329Z,3087.360
2022-11-18T06:30:00.342Z,3064.320
2022-11-18T06:31:00.584Z,3064.320
2022-11-18T06:32:00.377Z,3041.280
2022-11-18T06:33:00.380Z,3064.320
2022-11-18T06:34:00.404Z,3064.320
2022-11-18T06:35:00.427Z,3064.320
2022-11-18T06:36:00.319Z,3064.320
2022-11-18T06:37:00.459Z,3064.320
2022-11-18T06:38:00.330Z,3087.360
2022-11-18T06:39:00.317Z,3110.400
2022-11-18T06:40:00.335Z,3110.400
2022-11-18T06:41:00.322Z,3133.440
2022-11-18T06:42:00.349Z,3156.480
2022-11-18T06:43:00.622Z,3179.520
2022-11-18T06:44:00.363Z,3179.520
2022-11-18T06:45:00.407Z,3179.520
2022-11-18T06:46:04.716Z,3179.520
2022-11-18T06:47:00.400Z,3179.520
2022-11-18T06:48:00.315Z,3156.480
2022-11-18T06:49:00.567Z,3179.520
2022-11-18T06:50:00.462Z,3156.480
2022-11-18T06:51:00.544Z,3179.520
2022-11-18T06:52:00.344Z,3202.560
2022-11-18T06:53:00.450Z,3179.520
2022-11-18T06:54:00.562Z,3156.480
2022-11-18T06:55:00.504Z,3133.440
2022-11-18T06:56:00.384Z,3202.560
2022-11-18T06:57:00.344Z,3225.600
2022-11-18T06:58:00.395Z,3202.560
2022-11-18T06:59:00.306Z,3179.520
2022-11-18T07:00:02.374Z,3179.520
2022-11-18T07:01:00.556Z,3179.520
2022-11-18T07:02:00.371Z,3202.560
2022-11-18T07:03:00.327Z,3202.560
2022-11-18T07:04:00.348Z,3179.520
2022-11-18T07:05:00.345Z,3179.520
2022-11-18T07:06:00.541Z,3179.520
2022-11-18T07:07:00.534Z,3179.520
2022-11-18T07:08:00.467Z,3179.520
2022-11-18T07:09:00.314Z,3202.560
2022-11-18T07:10:00.389Z,3202.560
2022-11-18T07:11:00.402Z,3225.600
2022-11-18T07:12:00.349Z,3225.600
2022-11-18T07:13:00.516Z,3248.640
2022-11-18T07:14:00.324Z,3271.680
2022-11-18T07:15:00.322Z,3294.720
2022-11-18T07:16:00.329Z,3294.720
2022-11-18T07:17:00.313Z,3294.720
2022-11-18T07:18:00.301Z,3317.760
2022-11-18T07:19:00.468Z,3317.760
2022-11-18T07:20:00.368Z,3317.760
2022-11-18T07:21:00.517Z,3317.760
2022-11-18T07:22:00.331Z,3340.800
2022-11-18T07:23:00.437Z,3317.760
2022-11-18T07:24:00.332Z,3294.720
2022-11-18T07:25:00.509Z,3294.720
2022-11-18T07:26:00.290Z,3294.720
2022-11-18T07:27:00.332Z,3271.680
2022-11-18T07:28:00.349Z,3271.680
2022-11-18T07:29:00.335Z,3248.640
2022-11-18T07:30:00.323Z,3225.600
2022-11-18T07:31:00.447Z,3202.560
2022-11-18T07:32:00.331Z,3202.560
2022-11-18T07:33:00.325Z,3225.600
2022-11-18T07:34:00.325Z,3248.640
2022-11-18T07:35:00.302Z,3248.640
2022-11-18T07:36:00.725Z,3271.680
2022-11-18T07:37:00.451Z,3294.720
2022-11-18T07:38:00.333Z,3294.720
2022-11-18T07:39:00.403Z,3317.760
2022-11-18T07:40:00.389Z,3340.800
2022-11-18T07:41:00.305Z,3363.840
2022-11-18T07:42:00.383Z,3386.880
2022-11-18T07:43:00.459Z,3409.920
2022-11-18T07:44:00.997Z,3502.080
2022-11-18T07:45:00.327Z,3571.200
2022-11-18T07:46:00.340Z,3571.200
2022-11-18T07:47:00.332Z,3686.400
2022-11-18T07:48:00.316Z,3617.280
2022-11-18T07:49:00.452Z,3432.960
2022-11-18T07:50:00.344Z,3409.920
2022-11-18T07:51:00.432Z,3363.840
2022-11-18T07:52:00.431Z,3363.840
2022-11-18T07:53:00.304Z,3386.880
2022-11-18T07:54:00.331Z,3386.880
2022-11-18T07:55:00.466Z,3409.920
2022-11-18T07:56:00.342Z,3432.960
2022-11-18T07:57:00.310Z,3456.000
2022-11-18T07:58:00.390Z,3502.080
2022-11-18T07:59:00.379Z,3525.120
2022-11-18T08:00:00.296Z,3548.160
2022-11-18T08:01:00.471Z,3525.120
2022-11-18T08:02:00.493Z,3502.080
2022-11-18T08:03:00.372Z,3479.040
2022-11-18T08:04:00.321Z,3456.000
2022-11-18T08:05:00.398Z,3479.040
2022-11-18T08:06:00.348Z,3479.040
2022-11-18T08:07:00.581Z,3525.120
2022-11-18T08:08:00.307Z,3594.240
2022-11-18T08:09:00.332Z,3640.320
2022-11-18T08:10:00.373Z,3663.360
2022-11-18T08:11:00.313Z,3686.400
2022-11-18T08:12:00.327Z,3732.480
2022-11-18T08:13:00.487Z,3893.760
2022-11-18T08:14:00.369Z,7188.480
2022-11-18T08:15:00.368Z,20183.039
2022-11-18T08:16:00.304Z,26910.721
2022-11-18T08:17:00.305Z,26726.400
2022-11-18T08:18:00.339Z,27279.359
2022-11-18T08:19:00.584Z,27648.000
2022-11-18T08:20:00.339Z,27463.680
2022-11-18T08:21:00.372Z,26910.721
2022-11-18T08:22:00.628Z,26542.080
2022-11-18T08:23:00.316Z,26726.400
2022-11-18T08:24:00.330Z,26726.400
2022-11-18T08:25:00.477Z,26726.400
2022-11-18T08:26:00.336Z,26910.721
2022-11-18T08:27:00.349Z,26910.721
2022-11-18T08:28:00.307Z,26910.721
2022-11-18T08:29:00.447Z,26726.400
2022-11-18T08:30:00.344Z,26910.721
2022-11-18T08:31:00.689Z,26726.400
2022-11-18T08:32:00.364Z,26910.721
2022-11-18T08:33:00.344Z,26910.721
2022-11-18T08:34:00.338Z,26542.080
2022-11-18T08:35:00.394Z,26726.400
2022-11-18T08:36:00.374Z,26726.400
2022-11-18T08:37:01.384Z,26726.400
2022-11-18T08:38:00.309Z,26910.721
2022-11-18T08:39:00.334Z,26910.721
2022-11-18T08:40:00.300Z,26910.721
2022-11-18T08:41:00.325Z,26726.400
2022-11-18T08:42:00.306Z,26910.721
2022-11-18T08:43:00.541Z,27095.039
2022-11-18T08:44:00.333Z,27279.359
2022-11-18T08:45:00.330Z,27463.680
2022-11-18T08:46:00.379Z,27279.359
2022-11-18T08:47:00.328Z,27463.680
2022-11-18T08:48:00.306Z,27832.320
2022-11-18T08:49:00.571Z,28016.641
2022-11-18T08:50:00.467Z,28200.961
2022-11-18T08:51:00.372Z,28016.641
2022-11-18T08:52:00.508Z,27832.320
2022-11-18T08:53:00.389Z,28016.641
2022-11-18T08:54:00.432Z,28569.600
2022-11-18T08:55:00.523Z,28569.600
2022-11-18T08:56:00.351Z,29306.881
2022-11-18T08:57:00.324Z,31518.721
2022-11-18T08:58:00.332Z,35205.121
2022-11-18T08:59:00.431Z,42024.961
2022-11-18T09:00:00.565Z,49029.121
2022-11-18T09:01:00.491Z,55296.000
2022-11-18T09:02:00.960Z,60088.320
2022-11-18T09:03:00.348Z,63774.719
2022-11-18T09:04:00.368Z,65249.281
2022-11-18T09:05:00.349Z,65986.562
2022-11-18T09:06:00.312Z,66355.203
2022-11-18T09:07:00.548Z,65249.281
2022-11-18T09:08:00.419Z,62668.801
2022-11-18T09:09:05.020Z,58245.121
2022-11-18T09:10:00.455Z,49766.398
2022-11-18T09:11:00.361Z,41840.641
2022-11-18T09:12:00.311Z,35389.441
2022-11-18T09:13:24.893Z,30228.480
2022-11-18T09:14:53.550Z,27648.000
2022-11-18T09:15:14.954Z,27279.359
2022-11-18T09:16:00.406Z,27463.680
2022-11-18T09:17:00.360Z,26726.400
2022-11-18T09:18:00.354Z,26910.721
2022-11-18T09:19:18.165Z,26357.760
2022-11-18T09:20:00.429Z,27463.680
2022-11-18T09:21:00.338Z,19261.439
2022-11-18T09:22:00.362Z,9676.800
2022-11-18T09:23:00.530Z,12441.600
2022-11-18T09:24:00.326Z,16220.160
2022-11-18T09:25:00.517Z,28016.641
2022-11-18T09:26:00.385Z,28200.961
2022-11-18T09:27:00.358Z,27463.680
2022-11-18T09:28:00.306Z,28753.920
2022-11-18T09:29:00.325Z,12257.280
2022-11-18T09:30:00.458Z,8110.080
2022-11-18T09:31:00.625Z,7603.200
2022-11-18T09:32:00.334Z,6635.520
2022-11-18T09:33:00.332Z,7464.960
2022-11-18T09:34:00.327Z,11289.600
2022-11-18T09:35:00.323Z,29859.840
2022-11-18T09:36:00.330Z,11013.120
2022-11-18T09:37:00.540Z,24514.561
2022-11-18T09:38:00.451Z,18247.680
2022-11-18T09:39:00.346Z,21012.480
2022-11-18T09:40:00.418Z,11796.480
2022-11-18T09:41:00.312Z,14561.280
2022-11-18T09:42:00.333Z,23500.801
2022-11-18T09:43:00.715Z,17418.240
2022-11-18T09:44:00.347Z,9953.280
2022-11-18T09:45:00.324Z,18063.359
2022-11-18T09:46:00.417Z,26726.400
2022-11-18T09:47:00.378Z,29306.881
2022-11-18T09:48:00.325Z,20183.039
2022-11-18T09:49:00.459Z,20275.199
2022-11-18T09:50:06.594Z,9815.040
2022-11-18T09:51:00.341Z,17418.240
2022-11-18T09:52:00.330Z,27648.000
2022-11-18T09:53:00.483Z,26542.080
2022-11-18T09:54:00.335Z,20090.881
2022-11-18T09:55:00.472Z,12902.400
2022-11-18T09:56:00.375Z,17049.600
2022-11-18T09:57:00.473Z,7741.440
2022-11-18T09:58:00.343Z,7142.400
2022-11-18T09:59:00.408Z,8663.040
2022-11-18T10:00:00.345Z,19630.080
2022-11-18T10:01:00.580Z,20643.840
2022-11-18T10:02:00.417Z,22855.680
2022-11-18T10:03:00.332Z,24330.240
2022-11-18T10:04:00.348Z,24330.240
2022-11-18T10:05:00.304Z,18339.840
2022-11-18T10:06:00.353Z,25436.160
2022-11-18T10:07:00.563Z,26726.400
2022-11-18T10:08:00.430Z,25804.801
2022-11-18T10:09:00.328Z,26173.439
2022-11-18T10:10:00.294Z,24698.881
2022-11-18T10:11:00.330Z,23777.279
2022-11-18T10:12:00.303Z,24883.199
2022-11-18T10:13:00.531Z,22394.881
2022-11-18T10:14:00.324Z,9768.960
2022-11-18T10:15:00.348Z,5990.400
2022-11-18T10:16:00.306Z,5114.880
2022-11-18T10:17:00.324Z,4884.480
2022-11-18T10:18:00.304Z,5045.760
2022-11-18T10:19:01.310Z,7142.400
2022-11-18T10:20:00.315Z,12810.240
2022-11-18T10:21:00.347Z,5736.960
2022-11-18T10:22:00.464Z,10506.240
2022-11-18T10:23:00.580Z,15851.520
2022-11-18T10:24:00.427Z,7741.440
2022-11-18T10:25:00.632Z,8340.480
2022-11-18T10:26:00.303Z,9123.840
2022-11-18T10:27:00.405Z,22579.199
2022-11-18T10:28:00.542Z,11980.800
2022-11-18T10:29:00.666Z,12625.920
2022-11-18T10:30:00.349Z,5806.080
2022-11-18T10:31:00.550Z,5460.480
2022-11-18T10:32:03.844Z,4838.400
2022-11-18T10:33:00.309Z,4469.760
2022-11-18T10:34:00.321Z,4078.080
2022-11-18T10:35:00.303Z,4008.960
2022-11-18T10:36:00.343Z,4469.760
2022-11-18T10:37:00.584Z,3732.480
2022-11-18T10:38:07.946Z,3456.000
2022-11-18T10:39:00.439Z,2926.080
2022-11-18T10:40:00.332Z,2638.080
2022-11-18T10:41:00.330Z,2407.680
2022-11-18T10:42:00.290Z,2234.880
2022-11-18T10:43:00.562Z,2085.120
2022-11-18T10:44:00.324Z,1992.960
2022-11-18T10:45:00.346Z,1935.360
2022-11-18T10:46:00.584Z,1900.800
2022-11-18T10:47:00.336Z,1946.880
2022-11-18T10:48:00.346Z,1958.400
2022-11-18T10:49:00.449Z,1923.840
2022-11-18T10:50:00.425Z,1889.280
2022-11-18T10:51:00.325Z,1877.760
2022-11-18T10:52:00.332Z,1854.720
2022-11-18T10:53:00.373Z,1831.680
2022-11-18T10:54:00.464Z,1808.640
2022-11-18T10:55:00.529Z,1774.080
2022-11-18T10:56:00.403Z,1728.000
2022-11-18T10:57:00.323Z,1716.480
2022-11-18T10:58:00.343Z,1751.040
2022-11-18T10:59:00.332Z,1751.040
2022-11-18T11:00:00.457Z,1647.360
2022-11-18T11:01:00.473Z,1532.160
2022-11-18T11:02:04.073Z,1451.520
2022-11-18T11:03:00.341Z,1422.720
2022-11-18T11:04:00.582Z,1416.960
2022-11-18T11:05:00.362Z,1393.920
2022-11-18T11:06:00.387Z,1376.640
2022-11-18T11:07:00.519Z,1382.400
2022-11-18T11:08:21.267Z,1388.160
2022-11-18T11:09:00.388Z,1416.960
2022-11-18T11:10:00.348Z,1474.560
2022-11-18T11:11:00.329Z,1601.280
2022-11-18T11:12:00.405Z,1808.640
2022-11-18T11:13:00.498Z,2073.600
2022-11-18T11:14:00.322Z,2269.440
2022-11-18T11:15:00.340Z,2269.440
2022-11-18T11:16:00.301Z,2200.320
2022-11-18T11:17:00.382Z,2211.840
2022-11-18T11:18:00.320Z,2234.880
2022-11-18T11:19:00.499Z,2211.840
2022-11-18T11:20:00.322Z,2085.120
2022-11-18T11:21:00.293Z,2004.480
2022-11-18T11:22:00.325Z,1981.440
2022-11-18T11:23:00.401Z,1923.840
2022-11-18T11:24:00.570Z,1900.800
2022-11-18T11:25:00.547Z,1854.720
2022-11-18T11:28:16.438Z,1751.040
2022-11-18T11:29:00.296Z,1751.040
2022-11-18T11:30:00.308Z,1762.560
2022-11-18T11:31:00.460Z,1785.600
2022-11-18T11:32:00.353Z,1831.680
2022-11-18T11:33:00.351Z,1900.800
2022-11-18T11:34:00.307Z,2016.000
2022-11-18T11:35:00.320Z,2165.760
2022-11-18T11:36:00.317Z,2350.080
2022-11-18T11:37:00.496Z,2499.840
2022-11-18T11:38:00.342Z,2615.040
2022-11-18T11:39:04.675Z,2638.080
2022-11-18T11:40:00.414Z,2707.200
2022-11-18T11:41:00.320Z,3064.320
2022-11-18T11:42:00.325Z,3548.160
2022-11-18T11:43:00.476Z,3663.360
2022-11-18T11:44:00.327Z,4193.280
2022-11-18T11:45:00.599Z,4262.400
2022-11-18T11:46:00.378Z,4262.400
2022-11-18T11:47:00.296Z,4262.400
2022-11-18T11:48:00.323Z,4331.520
2022-11-18T11:49:00.615Z,4308.480
2022-11-18T11:50:00.363Z,4124.160
2022-11-18T11:51:03.894Z,3985.920
2022-11-18T11:52:00.350Z,3824.640
2022-11-18T11:53:00.346Z,3663.360
2022-11-18T11:54:00.326Z,3640.320
2022-11-18T11:55:00.584Z,3571.200
2022-11-18T11:56:00.318Z,3456.000
2022-11-18T11:57:00.376Z,3340.800
2022-11-18T11:58:00.401Z,3179.520
2022-11-18T11:59:00.421Z,3133.440
2022-11-18T12:00:00.386Z,3087.360
2022-11-18T12:01:00.518Z,3018.240
2022-11-18T12:02:00.352Z,2914.560